Klik op de webcam foto voor een grotere versieKlik op de webcam foto voor een grotere versie
Of klik hier voor
de webcam video


Weerstation
Wilsele-Leuven:Website of another weatherstation

Weerstation
Wilsele-Putkapel:Website of another weatherstation



Het weer levert geen direct gevaar op.    Er zijn geen waarschuwingen afgegeven.

Nabijgelegen vliegvelden - METAR rapporten

   
EBBR - Vaartkom-Leuven
Gewijzigd: 25-02-2021 17:20
Licht bewolkt    Wind: NW 13 km/h
Licht bewolkt
Wind: Wind: NW 13 km/h
Temperatuur: 14°C
Dauwpunt: 7°C
Vochtigheid: 63%
Barometer: 1026 hPa
Bewolking: Licht bewolkt
Zicht: meer dan 10 km
Bewolking: Licht bewolkt 1463 m
EBBR 251620Z 32007KT 9999 FEW048 14/07 Q1026 NOSIG
EBAW - Antwerp
Gewijzigd: 25-02-2021 17:20
Kleine buien, Regen, Grotendeels bewolkt    Wind: NW 13 km/h
Kleine buien, Regen, Grotendeels bewolkt
Wind: Wind: NW 13 km/h
Temperatuur: 12°C
Dauwpunt: 9°C
Vochtigheid: 82%
Barometer: 1027 hPa
Bewolking: Grotendeels bewolkt
Zicht: meer dan 10 km
Bewolking: Gedeeltelijk bewolkt 1005.8 m,
Grotendeels bewolkt 1432.6 m
EBAW 251620Z 32007KT 9999 -SHRA SCT033 BKN047 12/09 Q1027 NOSIG
EBLG - Liège
Gewijzigd: 25-02-2021 17:20
Helder    Wind: Noorden 7 km/h
Helder
Wind: Wind: Noorden 7 km/h
Temperatuur: 16°C
Dauwpunt: 9°C
Vochtigheid: 63%
Barometer: 1026 hPa
Zicht: meer dan 10 km
Bewolking: Helder
EBLG 251620Z 35004KT CAVOK 16/09 Q1026 NOSIG
EBCV - Mons/Bergen
Gewijzigd: 25-02-2021 17:25
Grotendeels bewolkt    Wind: Westen 6 km/h
Grotendeels bewolkt
Wind: Wind: Westen 6 km/h
Temperatuur: 14°C
Dauwpunt: 9°C
Vochtigheid: 72%
Barometer: 1026 hPa
Bewolking: Grotendeels bewolkt
Zicht: meer dan 10 km
Bewolking: Grotendeels bewolkt 975.4 m,
Grotendeels bewolkt 1889.8 m
EBCV 251625Z AUTO 28003KT 9999 BKN032/// BKN062/// 14/09 Q1026 BLU
EHBK - Maastricht
Gewijzigd: 25-02-2021 17:25
Gedeeltelijk bewolkt    Wind: Westen 6 km/h
Gedeeltelijk bewolkt
Wind: Wind: Westen 6 km/h
Temperatuur: 17°C
Dauwpunt: 8°C
Vochtigheid: 56%
Barometer: 1025 hPa
Bewolking: Gedeeltelijk bewolkt
Zicht: meer dan 10 km
Bewolking: Gedeeltelijk bewolkt
EHBK 251625Z AUTO 28003KT 240V320 9999 NSC 17/08 Q1025 NOSIG
ELLX - Luxemburg
Gewijzigd: 25-02-2021 17:20
Helder    Wind: Zuiden 9 km/h
Helder
Wind: Wind: Zuiden 9 km/h
Temperatuur: 15°C
Dauwpunt: 3°C
Vochtigheid: 45%
Barometer: 1027 hPa
Zicht: meer dan 10 km
Bewolking: Helder
ELLX 251620Z 18005KT 140V210 CAVOK 15/03 Q1027 NOSIG
EBOS - Oostende
Gewijzigd: 25-02-2021 17:20
Gedeeltelijk bewolkt    Wind: NNW 13 km/h
Gedeeltelijk bewolkt
Wind: Wind: NNW 13 km/h
Temperatuur: 9°C
Voelt als: 7°C
Dauwpunt: 7°C
Vochtigheid: 87%
Barometer: 1028 hPa
Bewolking: Gedeeltelijk bewolkt
Zicht: meer dan 10 km
Bewolking: Gedeeltelijk bewolkt 670.6 m
EBOS 251620Z 33007KT 9999 SCT022 09/07 Q1028 NOSIG
  

Script ontwikkeld door  Saratoga-weather.org Aangepast voor de template door  Weerstation Leuven

U vindt ons ook hier:

ambientweather.net/

UK Metoffice

WeatherCloud

European Weather Network

Weather Underground

Bernelux Weather Network

AWEKAS

WeatherlinkIP

Citizen Weather Observer Program (CWOP)

HAMweather, WeatherForYou, PWS Weather

Apparatuur in gebruik:

Weer-station
Davis VUE

Weer-programma
Meteobridge

Weer-computer
Nano-SD

Webleverancier
Robohost

Davis VUE

Meteobridge

Nano-SD

Robohost